Time;durP1;ratioP1;P1;durP2;ratioP2;P2;SDS_P1;SDS_P2;PMS_P1;PMS_P2;Temp;Humidity;BMP_temperature;BMP_pressure;BME280_temperature;BME280_humidity;BME280_pressure;Samples;Min_cycle;Max_cycle;Signal;HPM_P1;HPM_P2
2021/03/02 00:01:03;;;;;;;6.20;3.00;;;2.00;99.90;;;;;;5052109;28;20257;-67
2021/03/02 00:03:31;;;;;;;7.63;3.03;;;2.10;99.90;;;;;;5039291;28;20516;-67
2021/03/02 00:05:57;;;;;;;8.73;3.58;;;2.10;99.90;;;;;;5038364;28;20045;-67
2021/03/02 00:08:22;;;;;;;9.77;3.10;;;2.00;99.90;;;;;;5035700;28;20036;-66
2021/03/02 00:10:49;;;;;;;8.50;3.45;;;2.00;99.90;;;;;;5035217;28;20889;-67
2021/03/02 00:13:15;;;;;;;7.35;3.13;;;2.00;99.90;;;;;;5035550;28;20134;-66
2021/03/02 00:15:40;;;;;;;8.10;3.70;;;2.10;99.90;;;;;;5022736;28;20136;-67
2021/03/02 00:18:07;;;;;;;7.72;3.08;;;2.10;99.90;;;;;;5025656;28;20128;-67
2021/03/02 00:20:36;;;;;;;7.93;4.22;;;2.10;99.90;;;;;;5025990;28;20521;-66
2021/03/02 00:23:22;;;;;;;8.80;3.40;;;2.20;99.90;;;;;;5025815;28;20079;-67
2021/03/02 00:25:53;;;;;;;6.40;3.13;;;2.20;99.90;;;;;;5025961;28;20056;-67
2021/03/02 00:28:22;;;;;;;9.40;3.60;;;2.20;99.90;;;;;;5021533;28;20508;-66
2021/03/02 00:30:49;;;;;;;9.40;3.53;;;2.20;99.90;;;;;;5021142;28;20037;-66
2021/03/02 00:33:16;;;;;;;8.85;3.60;;;2.30;99.90;;;;;;5026030;28;20524;-66
2021/03/02 00:35:42;;;;;;;9.10;3.00;;;2.30;99.90;;;;;;5034455;28;20634;-66
2021/03/02 00:38:07;;;;;;;9.48;3.30;;;2.40;99.90;;;;;;5040220;28;20121;-67
2021/03/02 00:40:33;;;;;;;6.53;3.15;;;2.40;99.90;;;;;;5025020;28;20041;-67
2021/03/02 00:42:59;;;;;;;5.57;3.33;;;2.40;99.90;;;;;;5026797;28;20041;-67
2021/03/02 00:45:24;;;;;;;7.00;3.35;;;2.40;99.90;;;;;;5025225;28;20050;-64
2021/03/02 00:47:51;;;;;;;5.25;2.90;;;2.50;99.90;;;;;;5018920;28;20045;-64
2021/03/02 00:50:17;;;;;;;7.38;3.20;;;2.40;99.90;;;;;;5023885;28;20091;-64
2021/03/02 00:52:42;;;;;;;9.88;4.13;;;2.40;99.90;;;;;;5026709;28;20124;-64
2021/03/02 00:55:08;;;;;;;8.13;3.42;;;2.50;99.90;;;;;;5026991;28;20041;-64
2021/03/02 00:57:34;;;;;;;8.90;3.65;;;2.60;99.90;;;;;;5027446;28;20041;-65
2021/03/02 01:00:00;;;;;;;6.75;3.72;;;2.50;99.90;;;;;;5026286;28;20037;-65
2021/03/02 01:02:26;;;;;;;6.97;3.47;;;2.60;99.90;;;;;;5026866;28;20044;-66
2021/03/02 01:04:52;;;;;;;7.00;3.60;;;2.60;99.90;;;;;;5026604;28;20041;-65
2021/03/02 01:07:17;;;;;;;10.68;4.05;;;2.50;99.90;;;;;;5027577;28;20509;-66
2021/03/02 01:09:43;;;;;;;6.70;3.53;;;2.50;99.90;;;;;;5025620;28;20124;-66
2021/03/02 01:12:09;;;;;;;6.30;3.40;;;2.50;99.90;;;;;;5012780;28;20049;-66
2021/03/02 01:14:34;;;;;;;5.03;2.72;;;2.50;99.90;;;;;;5017982;28;20048;-66
2021/03/02 01:17:00;;;;;;;11.15;3.45;;;2.50;99.90;;;;;;5025212;28;20034;-66
2021/03/02 01:19:26;;;;;;;;;;;2.50;99.90;;;;;;5017557;28;20063;-66
2021/03/02 01:21:51;;;;;;;7.07;3.67;;;2.40;99.90;;;;;;5026391;28;19917;-66
2021/03/02 01:24:17;;;;;;;7.80;4.28;;;2.30;99.90;;;;;;5017162;28;20405;-66
2021/03/02 01:26:43;;;;;;;8.15;3.78;;;2.50;99.90;;;;;;5014738;28;20041;-66
2021/03/02 01:29:09;;;;;;;7.85;4.53;;;2.50;99.90;;;;;;5019185;28;20035;-66
2021/03/02 01:31:35;;;;;;;7.43;3.55;;;2.50;99.90;;;;;;5026483;28;20037;-66
2021/03/02 01:34:01;;;;;;;8.68;4.07;;;2.40;99.90;;;;;;5021065;28;20034;-66
2021/03/02 01:36:26;;;;;;;6.97;3.63;;;2.50;99.90;;;;;;5006274;28;20490;-66
2021/03/02 01:38:52;;;;;;;5.70;3.47;;;2.50;99.90;;;;;;5006656;28;20034;-66
2021/03/02 01:41:18;;;;;;;9.70;4.22;;;2.60;99.90;;;;;;5018658;28;20046;-66
2021/03/02 01:43:44;;;;;;;8.18;4.10;;;2.50;99.90;;;;;;5025917;28;20520;-66
2021/03/02 01:46:10;;;;;;;8.18;3.75;;;2.50;99.90;;;;;;5024552;28;20033;-66
2021/03/02 01:48:37;;;;;;;8.75;3.83;;;2.50;99.90;;;;;;5023240;28;20049;-67
2021/03/02 01:51:04;;;;;;;6.95;3.70;;;2.50;99.90;;;;;;5018863;28;20038;-66
2021/03/02 01:53:30;;;;;;;7.97;4.43;;;2.50;99.90;;;;;;5026607;28;20045;-67
2021/03/02 01:55:57;;;;;;;9.07;4.20;;;2.50;99.90;;;;;;5025471;28;20034;-67
2021/03/02 01:58:24;;;;;;;7.93;4.07;;;2.50;99.90;;;;;;5023589;28;20107;-67
2021/03/02 02:00:53;;;;;;;8.20;4.28;;;2.60;99.90;;;;;;5012154;28;20064;-66
2021/03/02 02:03:46;;;;;;;7.53;3.97;;;2.60;99.90;;;;;;5025083;28;20498;-67
2021/03/02 02:06:11;;;;;;;6.63;3.80;;;2.60;99.90;;;;;;5025635;28;20041;-66
2021/03/02 02:08:53;;;;;;;6.40;3.58;;;2.60;99.90;;;;;;5023836;28;20095;-66
2021/03/02 02:11:38;;;;;;;9.02;3.95;;;2.50;99.90;;;;;;5018864;28;20038;-66
2021/03/02 02:14:27;;;;;;;9.05;4.18;;;2.50;99.90;;;;;;5020472;28;20065;-67
2021/03/02 02:16:56;;;;;;;13.45;4.78;;;2.50;99.90;;;;;;5025344;28;20757;-66
2021/03/02 02:19:34;;;;;;;10.20;4.35;;;2.50;99.90;;;;;;5029096;28;20506;-66
2021/03/02 02:22:11;;;;;;;8.85;3.92;;;2.60;99.90;;;;;;5026100;28;20033;-67
2021/03/02 02:24:48;;;;;;;8.15;4.30;;;2.50;99.90;;;;;;5025334;28;20056;-66
2021/03/02 02:27:14;;;;;;;11.30;5.20;;;2.60;99.90;;;;;;5025983;28;20128;-66
2021/03/02 02:29:40;;;;;;;9.82;4.90;;;2.70;99.90;;;;;;5028347;28;20045;-66
2021/03/02 02:32:08;;;;;;;6.72;3.85;;;2.60;99.90;;;;;;5041311;28;20032;-66
2021/03/02 02:34:36;;;;;;;9.07;4.60;;;2.60;99.90;;;;;;5024299;28;20072;-66
2021/03/02 02:37:03;;;;;;;9.73;4.95;;;2.70;99.90;;;;;;5022877;28;20072;-66
2021/03/02 02:39:32;;;;;;;9.75;4.70;;;2.60;99.90;;;;;;5025786;28;20046;-66
2021/03/02 02:41:59;;;;;;;7.90;4.47;;;2.60;99.90;;;;;;5024777;28;20584;-66
2021/03/02 02:44:25;;;;;;;9.70;4.68;;;2.60;99.90;;;;;;5023612;28;20053;-66
2021/03/02 02:46:54;;;;;;;10.02;4.38;;;2.60;99.90;;;;;;5016045;28;20486;-66
2021/03/02 02:49:20;;;;;;;8.85;4.10;;;2.50;99.90;;;;;;5020163;28;20061;-66
2021/03/02 02:51:46;;;;;;;9.88;4.90;;;2.40;99.90;;;;;;5025525;28;20083;-66
2021/03/02 02:54:13;;;;;;;8.85;4.35;;;2.50;99.90;;;;;;5025292;28;20077;-66
2021/03/02 02:56:45;;;;;;;9.13;4.60;;;2.30;99.90;;;;;;5015364;28;20404;-66
2021/03/02 02:59:25;;;;;;;9.00;4.82;;;2.30;99.90;;;;;;5021722;28;20041;-65
2021/03/02 03:02:00;;;;;;;8.85;4.30;;;2.40;99.90;;;;;;5037329;28;20072;-66
2021/03/02 03:04:31;;;;;;;15.10;4.95;;;2.30;99.90;;;;;;5044424;28;20515;-66
2021/03/02 03:06:59;;;;;;;9.95;4.40;;;2.40;99.90;;;;;;5044481;28;20523;-66
2021/03/02 03:09:25;;;;;;;9.32;4.90;;;2.40;99.90;;;;;;5044596;28;20056;-66
2021/03/02 03:12:00;;;;;;;8.18;4.63;;;2.40;99.90;;;;;;5044514;28;20033;-66
2021/03/02 03:14:28;;;;;;;10.32;4.15;;;2.40;99.90;;;;;;5044464;28;20197;-66
2021/03/02 03:16:54;;;;;;;7.45;3.88;;;2.40;99.90;;;;;;5037292;28;20049;-66
2021/03/02 03:19:28;;;;;;;10.48;4.80;;;2.40;99.90;;;;;;5044005;28;20524;-66
2021/03/02 03:21:54;;;;;;;10.45;4.55;;;2.50;99.90;;;;;;5044474;28;20045;-66
2021/03/02 03:24:22;;;;;;;8.75;4.70;;;2.40;99.90;;;;;;5044422;28;20095;-66
2021/03/02 03:26:49;;;;;;;10.50;5.45;;;2.40;99.90;;;;;;5044401;28;20079;-66
2021/03/02 03:29:16;;;;;;;8.10;4.63;;;2.40;99.90;;;;;;5044492;28;20116;-66
2021/03/02 03:31:44;;;;;;;9.60;4.50;;;2.50;99.90;;;;;;5031408;28;20034;-66
2021/03/02 03:34:09;;;;;;;8.52;4.60;;;2.40;99.90;;;;;;5024393;28;20065;-66
2021/03/02 03:36:36;;;;;;;12.85;4.93;;;2.50;99.90;;;;;;5023470;28;20564;-66
2021/03/02 03:39:02;;;;;;;10.80;5.38;;;2.50;99.90;;;;;;5024240;28;20087;-66
2021/03/02 03:41:28;;;;;;;12.55;4.90;;;2.40;99.90;;;;;;5025122;28;20042;-66
2021/03/02 03:43:53;;;;;;;12.07;4.38;;;2.40;99.90;;;;;;5025513;28;20099;-66
2021/03/02 03:46:19;;;;;;;11.48;5.00;;;2.30;99.90;;;;;;5023428;28;20567;-66
2021/03/02 03:48:45;;;;;;;9.57;4.65;;;2.30;99.90;;;;;;5023409;28;20120;-66
2021/03/02 03:51:11;;;;;;;10.05;4.90;;;2.30;99.90;;;;;;5019238;28;20084;-66
2021/03/02 03:53:38;;;;;;;13.63;5.50;;;2.30;99.90;;;;;;5025166;28;20045;-66
2021/03/02 03:56:06;;;;;;;8.73;4.57;;;2.30;99.90;;;;;;5023751;28;20560;-66
2021/03/02 03:58:32;;;;;;;10.45;5.32;;;2.30;99.90;;;;;;5016154;28;20038;-66
2021/03/02 04:01:02;;;;;;;10.38;4.47;;;2.40;99.90;;;;;;5034125;28;20044;-66
2021/03/02 04:03:31;;;;;;;8.20;4.63;;;2.40;99.90;;;;;;5048072;28;20045;-66
2021/03/02 04:05:59;;;;;;;12.63;4.63;;;2.40;99.90;;;;;;5041992;28;20048;-66
2021/03/02 04:08:25;;;;;;;9.20;4.93;;;2.50;99.90;;;;;;5044145;28;20493;-65
2021/03/02 04:10:51;;;;;;;7.38;4.15;;;2.40;99.90;;;;;;5044156;28;20061;-65
2021/03/02 04:13:17;;;;;;;11.40;5.57;;;2.40;99.90;;;;;;5043542;28;20574;-65
2021/03/02 04:15:44;;;;;;;11.10;5.30;;;2.40;99.90;;;;;;5044043;28;20048;-65
2021/03/02 04:18:11;;;;;;;8.60;4.70;;;2.30;99.90;;;;;;5041620;28;20035;-65
2021/03/02 04:20:38;;;;;;;9.57;4.60;;;2.20;99.90;;;;;;5047585;28;20041;-65
2021/03/02 04:23:04;;;;;;;10.15;5.00;;;2.20;99.90;;;;;;5048122;28;20145;-63
2021/03/02 04:25:31;;;;;;;11.13;4.05;;;;;;;;;;5045389;28;20471;-64
2021/03/02 04:27:57;;;;;;;7.50;4.35;;;;;;;;;;5047491;28;20047;-65
2021/03/02 04:30:23;;;;;;;11.07;4.43;;;;;;;;;;5047692;28;20059;-65
2021/03/02 04:32:49;;;;;;;8.73;4.47;;;;;;;;;;5047673;28;20059;-65
2021/03/02 04:35:15;;;;;;;9.23;4.03;;;;;;;;;;5046823;28;20047;-65
2021/03/02 04:37:41;;;;;;;9.30;4.63;;;;;;;;;;5046781;28;20040;-66
2021/03/02 04:40:08;;;;;;;10.23;4.90;;;;;;;;;;5039564;28;20043;-66
2021/03/02 04:42:34;;;;;;;10.25;4.40;;;;;;;;;;5028954;28;20601;-65
2021/03/02 04:45:00;;;;;;;10.80;4.82;;;;;;;;;;5042991;28;20051;-65
2021/03/02 04:47:26;;;;;;;8.95;4.53;;;;;;;;;;5040473;28;20040;-65
2021/03/02 04:49:52;;;;;;;11.77;5.05;;;;;;;;;;5047199;28;20068;-66
2021/03/02 04:52:18;;;;;;;9.23;4.55;;;;;;;;;;5047609;28;20073;-66
2021/03/02 04:54:45;;;;;;;13.93;5.40;;;;;;;;;;5047809;28;20106;-66
2021/03/02 04:57:11;;;;;;;9.55;5.05;;;;;;;;;;5047083;28;20037;-65
2021/03/02 04:59:37;;;;;;;14.23;5.43;;;;;;;;;;5047326;28;20084;-65
2021/03/02 05:02:03;;;;;;;11.50;5.25;;;;;;;;;;5046220;28;20053;-65
2021/03/02 05:04:29;;;;;;;11.85;4.97;;;;;;;;;;5046924;28;20094;-65
2021/03/02 05:06:55;;;;;;;10.52;5.40;;;;;;;;;;5045851;28;20547;-66
2021/03/02 05:09:21;;;;;;;9.40;4.70;;;;;;;;;;5047078;28;20037;-66
2021/03/02 05:11:47;;;;;;;10.63;4.55;;;;;;;;;;5046916;28;20041;-66
2021/03/02 05:14:13;;;;;;;12.18;5.68;;;;;;;;;;5046439;28;20102;-66
2021/03/02 05:16:39;;;;;;;9.98;5.03;;;;;;;;;;5046459;28;20049;-66
2021/03/02 05:19:05;;;;;;;10.18;4.63;;;;;;;;;;5058389;28;20037;-67
2021/03/02 05:21:31;;;;;;;10.52;5.18;;;;;;;;;;5042227;28;20119;-67
2021/03/02 05:23:57;;;;;;;10.90;5.13;;;;;;;;;;5047301;28;20572;-66
2021/03/02 05:26:23;;;;;;;13.68;4.78;;;;;;;;;;5045914;28;20041;-65
2021/03/02 05:28:50;;;;;;;13.27;6.10;;;;;;;;;;5046921;28;20032;-66
2021/03/02 05:31:16;;;;;;;11.27;5.47;;;;;;;;;;5046592;28;20037;-65
2021/03/02 05:33:42;;;;;;;10.02;4.43;;;;;;;;;;5045059;28;20041;-65
2021/03/02 05:36:08;;;;;;;9.18;4.45;;;;;;;;;;5027230;28;20052;-64
2021/03/02 05:38:35;;;;;;;10.55;4.40;;;;;;;;;;5042537;28;20041;-64
2021/03/02 05:41:04;;;;;;;10.68;4.40;;;;;;;;;;5049519;28;20098;-64
2021/03/02 05:43:30;;;;;;;8.32;4.38;;;;;;;;;;5027341;28;20038;-64
2021/03/02 05:45:57;;;;;;;9.10;4.43;;;;;;;;;;5029044;28;20061;-65
2021/03/02 05:48:25;;;;;;;10.73;4.35;;;;;;;;;;5045786;28;20040;-64
2021/03/02 05:50:54;;;;;;;8.35;3.90;;;;;;;;;;5046371;28;20083;-64
2021/03/02 05:53:20;;;;;;;12.63;6.05;;;;;;;;;;5046745;28;20045;-64
2021/03/02 05:55:46;;;;;;;38.38;20.30;;;;;;;;;;5045465;28;20095;-64
2021/03/02 05:58:14;;;;;;;19.88;7.55;;;;;;;;;;5042714;28;20148;-66
2021/03/02 06:00:40;;;;;;;12.30;5.95;;;;;;;;;;5043072;28;20036;-63
2021/03/02 06:03:07;;;;;;;12.10;5.47;;;;;;;;;;5044943;28;20045;-64
2021/03/02 06:05:34;;;;;;;12.02;5.25;;;;;;;;;;5045498;28;20123;-66
2021/03/02 06:08:00;;;;;;;22.38;12.02;;;;;;;;;;5043582;28;20040;-64
2021/03/02 06:10:31;;;;;;;54.72;32.00;;;;;;;;;;5045481;28;20164;-65
2021/03/02 06:12:58;;;;;;;37.33;19.05;;;;;;;;;;5027207;28;20052;-64
2021/03/02 06:15:25;;;;;;;20.42;9.40;;;;;;;;;;5049505;28;20049;-65
2021/03/02 06:18:10;;;;;;;16.90;6.63;;;;;;;;;;5038211;28;20505;-63
2021/03/02 06:20:36;;;;;;;25.35;14.48;;;;;;;;;;5032453;28;20087;-63
2021/03/02 06:23:21;;;;;;;25.50;13.60;;;;;;;;;;5031293;28;20058;-66
2021/03/02 06:25:47;;;;;;;13.60;6.80;;;;;;;;;;5042206;28;20098;-66
2021/03/02 06:28:14;;;;;;;10.32;5.30;;;;;;;;;;5045504;28;20476;-62
2021/03/02 06:30:40;;;;;;;11.48;4.70;;;;;;;;;;5045419;28;20045;-65
2021/03/02 06:33:16;;;;;;;7.78;3.97;;;;;;;;;;5044941;28;20037;-63
2021/03/02 06:35:43;;;;;;;9.18;4.82;;;;;;;;;;5041980;28;20041;-65
2021/03/02 06:38:09;;;;;;;12.27;5.28;;;;;;;;;;5045464;28;20056;-66
2021/03/02 06:40:39;;;;;;;15.45;7.10;;;;;;;;;;5045342;28;20036;-63
2021/03/02 06:43:06;;;;;;;30.08;16.42;;;;;;;;;;5044998;28;20045;-63
2021/03/02 06:45:32;;;;;;;18.25;9.02;;;;;;;;;;5042751;28;20628;-64
2021/03/02 06:48:02;;;;;;;13.07;6.53;;;;;;;;;;5044857;28;20021;-63
2021/03/02 06:50:28;;;;;;;14.55;6.55;;;;;;;;;;5061070;22;20075;-77
2021/03/02 06:52:55;;;;;;;10.48;5.30;;;;;;;;;;5054177;28;20045;-76
2021/03/02 06:55:27;;;;;;;12.45;5.18;;;;;;;;;;5042694;28;20055;-77
2021/03/02 06:58:13;;;;;;;11.10;5.88;;;;;;;;;;5058734;28;20036;-76
2021/03/02 07:00:39;;;;;;;11.93;5.40;;;;;;;;;;5068307;28;20040;-77
2021/03/02 07:03:19;;;;;;;12.13;5.07;;;;;;;;;;5068245;28;20048;-77
2021/03/02 07:05:48;;;;;;;7.38;4.18;;;;;;;;;;5067788;28;20076;-78
2021/03/02 07:08:14;;;;;;;15.27;8.23;;;;;;;;;;5066073;28;20530;-76
2021/03/02 07:10:42;;;;;;;12.20;5.50;;;;;;;;;;5060918;28;20044;-77
2021/03/02 07:13:08;;;;;;;23.05;11.07;;;;;;;;;;5049949;28;20037;-76
2021/03/02 07:15:39;;;;;;;12.55;7.18;;;;;;;;;;5048659;28;20037;-77
2021/03/02 07:18:06;;;;;;;12.85;7.47;;;;;;;;;;5064373;28;20082;-78
2021/03/02 07:20:33;;;;;;;9.73;5.47;;;;;;;;;;5059947;28;20036;-77
2021/03/02 07:23:01;;;;;;;9.98;5.05;;;;;;;;;;5049032;28;20136;-77
2021/03/02 07:25:29;;;;;;;14.65;6.15;;;;;;;;;;5082792;28;20047;-77
2021/03/02 07:28:00;;;;;;;7.72;4.82;;;;;;;;;;5071374;28;20127;-76
2021/03/02 07:30:26;;;;;;;10.65;4.82;;;;;;;;;;5072404;28;20038;-76
2021/03/02 07:32:52;;;;;;;9.27;5.15;;;;;;;;;;5073773;28;20569;-77
2021/03/02 07:35:20;;;;;;;11.68;5.53;;;;;;;;;;5072802;28;20036;-77
2021/03/02 07:37:46;;;;;;;18.38;5.28;;;;;;;;;;5073041;28;20143;-77
2021/03/02 07:40:14;;;;;;;9.52;4.53;;;;;;;;;;5072629;28;20032;-76
2021/03/02 07:42:41;;;;;;;10.20;5.38;;;;;;;;;;5073411;28;20428;-75
2021/03/02 07:45:15;;;;;;;7.70;4.25;;;;;;;;;;5091964;28;20119;-75
2021/03/02 07:47:42;;;;;;;9.95;5.18;;;;;;;;;;5072254;28;20043;-76
2021/03/02 07:50:38;;;;;;;8.20;4.47;;;;;;;;;;5072667;28;20032;-75
2021/03/02 07:53:23;;;;;;;11.77;4.72;;;;;;;;;;5047031;28;20052;-75
2021/03/02 07:56:09;;;;;;;9.35;5.25;;;;;;;;;;5053377;28;20040;-75
2021/03/02 07:58:35;;;;;;;10.53;5.07;;;;;;;;;;5052672;28;20036;-76
2021/03/02 08:01:24;;;;;;;12.02;6.55;;;;;;;;;;5065925;28;20040;-75
2021/03/02 08:03:50;;;;;;;8.90;4.63;;;;;;;;;;5072657;28;20043;-76
2021/03/02 08:06:23;;;;;;;7.22;4.55;;;;;;;;;;5072494;28;20056;-76
2021/03/02 08:08:49;;;;;;;15.52;5.53;;;;;;;;;;5072458;28;20040;-76
2021/03/02 08:11:37;;;;;;;10.35;4.82;;;;;;;;;;5066098;28;20089;-77
2021/03/02 08:14:18;;;;;;;8.00;4.22;;;;;;;;;;5053308;28;20044;-76
2021/03/02 08:17:00;;;;;;;8.27;4.32;;;;;;;;;;5052818;28;20045;-77
2021/03/02 08:19:34;;;;;;;10.93;6.22;;;;;;;;;;5078645;28;20055;-76
2021/03/02 08:22:03;;;;;;;13.50;5.35;;;;;;;;;;5053725;28;20037;-76
2021/03/02 08:24:48;;;;;;;9.63;5.07;;;;;;;;;;5052842;28;20090;-77
2021/03/02 08:27:15;;;;;;;9.10;4.65;;;;;;;;;;5053289;28;20481;-77
2021/03/02 08:29:49;;;;;;;12.65;5.25;;;;;;;;;;5069997;28;20040;-77
2021/03/02 08:32:17;;;;;;;10.77;5.80;;;;;;;;;;5035202;28;20120;-77
2021/03/02 08:34:44;;;;;;;16.77;6.43;;;;;;;;;;5039863;28;20044;-77
2021/03/02 08:37:10;;;;;;;15.68;6.97;;;;;;;;;;5031914;28;20033;-76
2021/03/02 08:39:37;;;;;;;15.10;6.88;;;;;;;;;;5076417;28;20047;-77
2021/03/02 08:42:07;;;;;;;14.80;6.63;;;;;;;;;;5072296;28;20040;-77
2021/03/02 08:44:33;;;;;;;13.32;6.38;;;;;;;;;;5072441;28;20055;-77
2021/03/02 08:47:01;;;;;;;13.48;7.40;;;;;;;;;;5070850;28;20036;-76
2021/03/02 08:49:27;;;;;;;18.60;9.23;;;;;;;;;;5056805;28;20136;-77
2021/03/02 08:52:00;;;;;;;16.88;9.85;;;;;;;;;;5051947;28;20123;-77
2021/03/02 08:54:27;;;;;;;13.60;6.63;;;;;;;;;;5051850;28;20052;-76
2021/03/02 08:57:00;;;;;;;13.60;6.50;;;;;;;;;;5051713;28;20564;-76
2021/03/02 08:59:29;;;;;;;12.95;6.25;;;;;;;;;;5057450;28;20063;-77
2021/03/02 09:01:56;;;;;;;10.57;5.68;;;;;;;;;;5071217;28;20468;-77
2021/03/02 09:04:25;;;;;;;11.73;5.60;;;;;;;;;;5071916;28;20086;-78
2021/03/02 09:06:51;;;;;;;13.88;7.07;;;;;;;;;;5067904;28;20059;-78
2021/03/02 09:09:19;;;;;;;13.05;6.05;;;;;;;;;;5063917;28;20040;-77
2021/03/02 09:11:49;;;;;;;18.25;7.05;;;;;;;;;;5069512;28;20102;-78
2021/03/02 09:14:17;;;;;;;11.68;5.78;;;;;;;;;;5056088;28;20036;-77
2021/03/02 09:16:44;;;;;;;18.65;10.13;;;;;;;;;;5070970;28;20051;-77
2021/03/02 09:19:10;;;;;;;14.50;7.82;;;;;;;;;;5058307;28;20040;-78
2021/03/02 09:21:38;;;;;;;16.10;5.82;;;;;;;;;;5051442;28;20040;-78
2021/03/02 09:24:05;;;;;;;13.48;6.93;;;;;;;;;;5051512;28;20044;-78
2021/03/02 09:26:31;;;;;;;10.55;5.32;;;;;;;;;;5051293;28;20037;-78
2021/03/02 09:28:59;;;;;;;11.13;5.20;;;;;;;;;;5058207;28;20112;-78
2021/03/02 09:31:26;;;;;;;10.50;5.45;;;;;;;;;;5065098;28;20032;-78
2021/03/02 09:33:52;;;;;;;10.52;5.18;;;;;;;;;;5051849;28;20056;-77
2021/03/02 09:36:19;;;;;;;9.82;5.45;;;;;;;;;;5051302;28;20032;-78
2021/03/02 09:38:46;;;;;;;8.70;4.63;;;;;;;;;;5051300;28;20087;-76
2021/03/02 09:41:12;;;;;;;8.10;4.25;;;;;;;;;;5069457;28;20040;-78
2021/03/02 09:43:40;;;;;;;7.38;4.50;;;;;;;;;;5051193;28;20052;-77
2021/03/02 09:46:07;;;;;;;8.52;4.40;;;;;;;;;;5050178;28;20508;-76
2021/03/02 09:48:48;;;;;;;8.43;4.15;;;;;;;;;;5050216;28;20048;-77
2021/03/02 09:51:31;;;;;;;8.05;3.65;;;;;;;;;;5043346;28;20087;-78
2021/03/02 09:54:13;;;;;;;9.57;4.15;;;;;;;;;;5050122;28;20071;-77
2021/03/02 09:56:40;;;;;;;6.72;3.97;;;;;;;;;;5050953;28;20144;-76
2021/03/02 09:59:07;;;;;;;7.97;3.33;;;;;;;;;;5052297;28;20040;-77
2021/03/02 10:01:36;;;;;;;6.60;3.83;;;;;;;;;;5065082;28;20043;-76
2021/03/02 10:04:06;;;;;;;9.88;3.78;;;;;;;;;;5072437;28;20055;-78
2021/03/02 10:06:32;;;;;;;9.38;3.60;;;;;;;;;;5070598;28;20557;-78
2021/03/02 10:08:59;;;;;;;7.22;3.15;;;;;;;;;;5067250;28;20029;-77
2021/03/02 10:11:27;;;;;;;7.65;3.30;;;;;;;;;;5050846;28;20037;-78
2021/03/02 10:13:55;;;;;;;10.13;3.58;;;;;;;;;;5067452;28;20067;-79
2021/03/02 10:16:27;;;;;;;5.00;2.67;;;;;;;;;;5070409;28;20153;-77
2021/03/02 10:18:55;;;;;;;5.85;3.08;;;;;;;;;;5053199;28;20129;-79
2021/03/02 10:21:22;;;;;;;7.00;3.95;;;;;;;;;;5050365;28;20055;-76
2021/03/02 10:24:01;;;;;;;7.22;3.85;;;;;;;;;;5050557;28;20147;-77
2021/03/02 10:26:27;;;;;;;7.45;3.95;;;;;;;;;;5049702;28;20051;-78
2021/03/02 10:28:54;;;;;;;8.18;3.53;;;;;;;;;;5051285;28;20037;-77
2021/03/02 10:31:21;;;;;;;10.60;3.92;;;;;;;;;;5062024;28;20077;-77
2021/03/02 10:33:47;;;;;;;6.47;3.53;;;;;;;;;;5067868;28;20131;-78
2021/03/02 10:36:25;;;;;;;7.07;3.40;;;;;;;;;;5050497;28;20120;-77
2021/03/02 10:38:52;;;;;;;7.00;3.10;;;;;;;;;;5050385;28;20051;-78
2021/03/02 10:41:19;;;;;;;5.65;2.95;;;;;;;;;;5050413;28;20701;-77
2021/03/02 10:43:46;;;;;;;5.88;2.95;;;;;;;;;;5064992;28;20047;-77
2021/03/02 10:46:12;;;;;;;6.57;2.70;;;;;;;;;;5068841;28;20039;-77
2021/03/02 10:48:38;;;;;;;;;;;;;;;;;;5062023;28;20115;-76
2021/03/02 10:51:05;;;;;;;7.37;3.23;;;;;;;;;;5050120;28;19916;-77
2021/03/02 10:53:31;;;;;;;7.95;2.95;;;;;;;;;;5043664;28;20275;-77
2021/03/02 10:55:57;;;;;;;4.93;3.15;;;;;;;;;;5030037;28;20044;-76
2021/03/02 10:58:25;;;;;;;6.88;3.05;;;;;;;;;;5039982;28;20532;-78
2021/03/02 11:00:51;;;;;;;8.00;3.80;;;;;;;;;;5055428;28;20086;-75
2021/03/02 11:03:19;;;;;;;6.03;3.38;;;;;;;;;;5060500;28;20056;-77
2021/03/02 11:05:45;;;;;;;8.52;3.58;;;;;;;;;;5049072;28;20123;-77
2021/03/02 11:08:11;;;;;;;5.60;3.25;;;;;;;;;;5049196;28;20048;-76
2021/03/02 11:10:38;;;;;;;6.18;3.22;;;;;;;;;;5049457;28;20072;-76
2021/03/02 11:13:04;;;;;;;11.30;3.97;;;;;;;;;;5048823;28;20094;-77
2021/03/02 11:15:30;;;;;;;8.48;3.97;;;;;;;;;;5048817;28;20040;-77
2021/03/02 11:17:56;;;;;;;8.68;4.20;;;;;;;;;;5067166;28;20045;-76
2021/03/02 11:20:23;;;;;;;8.43;4.13;;;;;;;;;;5053669;28;20040;-76
2021/03/02 11:22:49;;;;;;;7.75;3.72;;;;;;;;;;5048977;28;20040;-76
2021/03/02 11:25:18;;;;;;;6.18;3.40;;;;;;;;;;5046003;28;20072;-76
2021/03/02 11:27:45;;;;;;;7.10;3.42;;;;;;;;;;5048326;28;20036;-74
2021/03/02 11:30:14;;;;;;;5.47;3.17;;;;;;;;;;5048526;28;20104;-76
2021/03/02 11:32:40;;;;;;;9.13;4.57;;;;;;;;;;5082344;28;20040;-75
2021/03/02 11:35:07;;;;;;;5.40;3.45;;;;;;;;;;5072048;28;20076;-76
2021/03/02 11:37:35;;;;;;;8.98;4.82;;;;;;;;;;5048920;28;20071;-77
2021/03/02 11:40:01;;;;;;;7.60;4.15;;;;;;;;;;5049734;28;20040;-77
2021/03/02 11:42:27;;;;;;;8.23;3.67;;;;;;;;;;5061425;28;20106;-77
2021/03/02 11:44:53;;;;;;;8.48;4.65;;;;;;;;;;5045210;28;20041;-76
2021/03/02 11:47:20;;;;;;;8.10;3.65;;;;;;;;;;5048922;28;20120;-77
2021/03/02 11:49:46;;;;;;;6.60;3.55;;;;;;;;;;5049993;28;20033;-77
2021/03/02 11:52:13;;;;;;;;;;;;;;;;;;5049322;28;20098;-77
2021/03/02 11:54:39;;;;;;;13.02;3.95;;;;;;;;;;5065121;28;19943;-77
2021/03/02 11:57:07;;;;;;;6.18;3.30;;;;;;;;;;5048172;28;20113;-78
2021/03/02 11:59:34;;;;;;;7.30;4.07;;;;;;;;;;5049372;28;20500;-76
2021/03/02 12:02:00;;;;;;;9.02;4.70;;;;;;;;;;5048207;28;20047;-75
2021/03/02 12:04:26;;;;;;;10.48;5.18;;;;;;;;;;5048509;28;20066;-78
2021/03/02 12:06:52;;;;;;;7.82;3.90;;;;;;;;;;5043520;28;20497;-79
2021/03/02 12:09:19;;;;;;;9.70;4.15;;;;;;;;;;5048847;28;20037;-78
2021/03/02 12:11:46;;;;;;;8.35;3.50;;;;;;;;;;5048957;28;20052;-75
2021/03/02 12:14:12;;;;;;;7.60;3.63;;;;;;;;;;5052875;28;20036;-77
2021/03/02 12:16:39;;;;;;;7.85;3.20;;;;;;;;;;5052428;28;20041;-76
2021/03/02 12:19:06;;;;;;;6.13;3.63;;;;;;;;;;5055295;28;20190;-78
2021/03/02 12:21:32;;;;;;;5.25;2.83;;;;;;;;;;5052248;28;20105;-79
2021/03/02 12:23:58;;;;;;;7.82;2.65;;;;;;;;;;5052939;28;20077;-78
2021/03/02 12:26:25;;;;;;;9.05;2.33;;;;;;;;;;5051757;28;20048;-78
2021/03/02 12:28:51;;;;;;;5.72;3.22;;;;;;;;;;5052744;28;20045;-76
2021/03/02 12:31:17;;;;;;;5.72;2.92;;;;;;;;;;5057702;28;20028;-77
2021/03/02 12:33:43;;;;;;;6.57;2.75;;;;;;;;;;5050330;28;20048;-78
2021/03/02 12:36:10;;;;;;;7.18;3.67;;;;;;;;;;5051654;28;20039;-77
2021/03/02 12:38:36;;;;;;;4.18;2.42;;;;;;;;;;5068276;28;20029;-75
2021/03/02 12:41:02;;;;;;;3.55;2.38;;;;;;;;;;5050206;28;20040;-76
2021/03/02 12:43:30;;;;;;;3.25;2.22;;;;;;;;;;5068142;28;20052;-77
2021/03/02 12:45:56;;;;;;;3.40;1.85;;;;;;;;;;5043359;28;20572;-76
2021/03/02 12:48:22;;;;;;;6.38;4.07;;;;;;;;;;5047066;28;20062;-76
2021/03/02 12:50:49;;;;;;;2.80;1.88;;;;;;;;;;5060094;28;20409;-77
2021/03/02 12:53:15;;;;;;;4.63;1.90;;;;;;;;;;5032019;28;20049;-77
2021/03/02 12:55:41;;;;;;;3.55;2.35;;;;;;;;;;5044206;28;20056;-76
2021/03/02 12:58:09;;;;;;;3.83;2.17;;;;;;;;;;5068349;28;20109;-77
2021/03/02 13:00:35;;;;;;;3.13;1.80;;;;;;;;;;5071389;28;20047;-77
2021/03/02 13:03:02;;;;;;;3.50;2.05;;;;;;;;;;5060380;28;20044;-76
2021/03/02 13:05:29;;;;;;;10.55;3.75;;;;;;;;;;5051489;28;20043;-75
2021/03/02 13:07:56;;;;;;;2.97;1.67;;;;;;;;;;5051769;28;20051;-77
2021/03/02 13:10:22;;;;;;;5.88;4.10;;;;;;;;;;5065349;28;20435;-78
2021/03/02 13:12:49;;;;;;;3.97;2.08;;;;;;;;;;5067832;28;20046;-77
2021/03/02 13:15:16;;;;;;;3.80;1.95;;;;;;;;;;5089096;28;20036;-77
2021/03/02 13:17:44;;;;;;;3.53;2.05;;;;;;;;;;5077388;28;20667;-77
2021/03/02 13:20:11;;;;;;;4.68;2.28;;;;;;;;;;5063105;28;20039;-76
2021/03/02 13:22:37;;;;;;;3.45;2.15;;;;;;;;;;5070019;28;20043;-76
2021/03/02 13:25:04;;;;;;;6.43;2.38;;;;;;;;;;5071646;28;20044;-76
2021/03/02 13:27:32;;;;;;;5.38;2.65;;;;;;;;;;5067172;28;20032;-77
2021/03/02 13:30:01;;;;;;;3.97;2.22;;;;;;;;;;5071505;28;20051;-76
2021/03/02 13:32:32;;;;;;;4.50;1.83;;;;;;;;;;5070470;28;20028;-77
2021/03/02 13:35:02;;;;;;;4.63;2.20;;;;;;;;;;5070982;28;20593;-76
2021/03/02 13:37:31;;;;;;;3.58;2.38;;;;;;;;;;5069165;28;20119;-77
2021/03/02 13:39:59;;;;;;;5.82;2.33;;;;;;;;;;5054600;28;20123;-76
2021/03/02 13:42:28;;;;;;;5.80;2.25;;;;;;;;;;5071379;28;20062;-76
2021/03/02 13:44:54;;;;;;;6.45;2.28;;;;;;;;;;5070552;28;20104;-77
2021/03/02 13:47:20;;;;;;;;;;;;;;;;;;5071386;28;20048;-77
2021/03/02 13:49:46;;;;;;;6.80;2.50;;;;;;;;;;5079730;28;19923;-77
2021/03/02 13:52:13;;;;;;;3.72;1.98;;;;;;;;;;5070684;28;20216;-75
2021/03/02 13:54:39;;;;;;;3.47;1.95;;;;;;;;;;5075410;28;20036;-76
2021/03/02 13:57:08;;;;;;;5.47;2.55;;;;;;;;;;5069950;28;20135;-75
2021/03/02 13:59:34;;;;;;;4.38;2.22;;;;;;;;;;5070946;28;20765;-76
2021/03/02 14:02:01;;;;;;;7.38;2.83;;;;;;;;;;5055454;28;20042;-76
2021/03/02 14:04:29;;;;;;;3.50;2.05;;;;;;;;;;5066702;28;20109;-75
2021/03/02 14:06:55;;;;;;;5.32;2.13;;;;;;;;;;5067853;28;20036;-77
2021/03/02 14:09:23;;;;;;;4.32;2.10;;;;;;;;;;5066546;28;20682;-76